Time;durP1;ratioP1;P1;durP2;ratioP2;P2;SDS_P1;SDS_P2;PMS_P1;PMS_P2;Temp;Humidity;BMP_temperature;BMP_pressure;BME280_temperature;BME280_humidity;BME280_pressure;Samples;Min_cycle;Max_cycle;Signal;HPM_P1;HPM_P2
2023/09/03 00:01:53;;;;;;;2.17;2.02;;;19.10;99.90;;;;;;932380;150;27970;-74
2023/09/03 00:04:20;;;;;;;3.65;2.40;;;19.00;99.90;;;;;;932296;150;27421;-74
2023/09/03 00:06:46;;;;;;;2.25;2.10;;;19.00;99.90;;;;;;931109;150;27335;-75
2023/09/03 00:09:13;;;;;;;2.20;2.10;;;19.00;99.90;;;;;;931323;150;27406;-75
2023/09/03 00:11:40;;;;;;;3.80;2.30;;;19.00;99.90;;;;;;932777;150;27783;-75
2023/09/03 00:14:06;;;;;;;2.12;1.92;;;19.00;99.90;;;;;;931348;150;27453;-74
2023/09/03 00:16:33;;;;;;;6.00;2.00;;;18.90;99.90;;;;;;929850;150;27319;-75
2023/09/03 00:18:59;;;;;;;2.08;1.98;;;18.90;99.90;;;;;;931284;150;27377;-75
2023/09/03 00:21:26;;;;;;;4.80;2.30;;;18.90;99.90;;;;;;917984;152;27896;-75
2023/09/03 00:23:53;;;;;;;3.40;2.30;;;18.80;99.90;;;;;;931462;150;27323;-76
2023/09/03 00:26:21;;;;;;;2.80;2.60;;;18.80;99.90;;;;;;908631;153;27285;-75
2023/09/03 00:28:46;;;;;;;2.55;2.10;;;18.80;99.90;;;;;;916270;152;27491;-75
2023/09/03 00:31:12;;;;;;;4.05;2.20;;;18.80;99.90;;;;;;914775;152;27516;-75
2023/09/03 00:33:39;;;;;;;3.10;2.15;;;18.80;99.90;;;;;;917288;152;27310;-76
2023/09/03 00:36:06;;;;;;;4.67;2.27;;;18.80;99.90;;;;;;916985;152;27858;-76
2023/09/03 00:38:32;;;;;;;2.72;1.82;;;18.70;99.90;;;;;;931628;150;27437;-74
2023/09/03 00:40:59;;;;;;;2.15;1.98;;;18.70;99.90;;;;;;931789;150;27379;-76
2023/09/03 00:43:25;;;;;;;1.60;1.50;;;18.70;99.90;;;;;;930825;150;27361;-76
2023/09/03 00:45:52;;;;;;;1.98;1.87;;;18.70;99.90;;;;;;932449;150;27502;-76
2023/09/03 00:48:19;;;;;;;1.50;1.40;;;18.70;99.90;;;;;;931794;150;27326;-75
2023/09/03 00:50:45;;;;;;;1.62;1.50;;;18.70;99.90;;;;;;931110;150;27447;-76
2023/09/03 00:53:12;;;;;;;4.33;2.10;;;18.70;99.90;;;;;;931230;150;27729;-75
2023/09/03 00:55:38;;;;;;;2.05;1.90;;;18.60;99.90;;;;;;930986;150;27416;-75
2023/09/03 00:58:06;;;;;;;2.58;2.37;;;18.60;99.90;;;;;;930190;150;27349;-76
2023/09/03 01:00:31;;;;;;;2.12;1.92;;;18.60;99.90;;;;;;930359;150;27338;-74
2023/09/03 01:02:58;;;;;;;3.20;2.17;;;18.60;99.90;;;;;;931056;150;27374;-75
2023/09/03 01:05:25;;;;;;;2.47;2.27;;;18.50;99.90;;;;;;929568;150;27351;-76
2023/09/03 01:07:51;;;;;;;2.70;1.92;;;18.50;99.90;;;;;;932631;150;27315;-75
2023/09/03 01:10:18;;;;;;;2.92;2.05;;;18.50;99.90;;;;;;930171;150;27378;-75
2023/09/03 01:12:47;;;;;;;2.35;1.70;;;18.40;99.90;;;;;;932103;150;27399;-75
2023/09/03 01:15:22;;;;;;;3.17;2.12;;;18.40;99.90;;;;;;930107;150;27331;-76
2023/09/03 01:17:49;;;;;;;2.10;2.00;;;18.30;99.90;;;;;;932240;150;27268;-75
2023/09/03 01:20:19;;;;;;;3.85;3.22;;;18.30;99.90;;;;;;930754;150;27362;-74
2023/09/03 01:22:51;;;;;;;2.05;1.80;;;18.30;99.90;;;;;;931652;150;27362;-77
2023/09/03 01:25:54;;;;;;;2.17;2.08;;;18.30;99.90;;;;;;928619;150;27464;-76
2023/09/03 01:28:23;;;;;;;2.30;1.98;;;18.20;99.90;;;;;;930356;150;27351;-76
2023/09/03 01:30:50;;;;;;;2.08;1.90;;;18.20;99.90;;;;;;930865;150;27365;-74
2023/09/03 01:33:16;;;;;;;2.50;2.30;;;18.20;99.90;;;;;;931975;150;27379;-75
2023/09/03 01:35:43;;;;;;;2.47;2.27;;;18.20;99.90;;;;;;930346;150;27445;-75
2023/09/03 01:38:10;;;;;;;2.00;1.90;;;18.10;99.90;;;;;;930993;150;27360;-75
2023/09/03 01:40:36;;;;;;;2.77;2.17;;;18.10;99.90;;;;;;930709;150;27599;-75
2023/09/03 01:43:03;;;;;;;2.00;1.90;;;18.10;99.90;;;;;;930754;150;27451;-76
2023/09/03 01:45:36;;;;;;;2.02;1.92;;;18.00;99.90;;;;;;930834;150;27327;-76
2023/09/03 01:48:02;;;;;;;1.85;1.75;;;18.00;99.90;;;;;;931026;150;27334;-76
2023/09/03 01:50:32;;;;;;;3.80;2.20;;;18.00;99.90;;;;;;930285;150;27405;-75
2023/09/03 01:53:02;;;;;;;4.97;2.30;;;18.00;99.90;;;;;;932205;150;27383;-75
2023/09/03 01:55:27;;;;;;;4.08;2.37;;;17.90;99.90;;;;;;930391;150;27301;-75
2023/09/03 01:57:54;;;;;;;3.08;1.95;;;17.90;99.90;;;;;;930993;150;27875;-76
2023/09/03 02:00:21;;;;;;;2.55;2.25;;;17.80;99.90;;;;;;930421;150;27371;-75
2023/09/03 02:02:50;;;;;;;4.15;2.22;;;17.90;99.90;;;;;;931972;150;27363;-76
2023/09/03 02:05:14;;;;;;;3.35;2.20;;;17.80;99.90;;;;;;931469;152;27273;-76
2023/09/03 02:07:40;;;;;;;2.90;2.15;;;17.80;99.90;;;;;;929766;150;27340;-76
2023/09/03 02:10:07;;;;;;;3.10;2.30;;;17.80;99.90;;;;;;932513;150;27477;-75
2023/09/03 02:12:33;;;;;;;2.60;2.40;;;17.80;99.90;;;;;;930589;150;27423;-75
2023/09/03 02:15:00;;;;;;;3.33;2.50;;;17.80;99.90;;;;;;931301;150;27395;-76
2023/09/03 02:17:27;;;;;;;3.90;2.45;;;17.80;99.90;;;;;;930961;150;27425;-76
2023/09/03 02:19:54;;;;;;;2.42;2.30;;;17.80;99.90;;;;;;932328;150;27472;-75
2023/09/03 02:22:20;;;;;;;2.92;2.72;;;17.80;99.90;;;;;;929899;150;27339;-75
2023/09/03 02:24:46;;;;;;;3.45;2.00;;;17.80;99.90;;;;;;933650;150;27476;-75
2023/09/03 02:27:13;;;;;;;1.92;1.82;;;17.70;99.90;;;;;;931526;150;27436;-75
2023/09/03 02:29:40;;;;;;;4.35;2.35;;;17.70;99.90;;;;;;931675;150;27288;-75
2023/09/03 02:32:06;;;;;;;2.75;2.55;;;17.70;99.90;;;;;;931577;150;27331;-75
2023/09/03 02:34:33;;;;;;;2.08;1.98;;;17.70;99.90;;;;;;930594;150;27539;-75
2023/09/03 02:36:59;;;;;;;3.27;2.50;;;17.70;99.90;;;;;;931206;150;27412;-75
2023/09/03 02:39:26;;;;;;;2.40;2.20;;;17.70;99.90;;;;;;931065;150;27335;-75
2023/09/03 02:41:53;;;;;;;2.12;1.90;;;17.70;99.90;;;;;;931601;150;27424;-75
2023/09/03 02:44:19;;;;;;;7.03;2.15;;;17.70;99.90;;;;;;931966;150;27925;-75
2023/09/03 02:46:46;;;;;;;3.47;2.05;;;17.70;99.90;;;;;;931048;150;27359;-76
2023/09/03 02:49:12;;;;;;;2.70;2.50;;;17.70;99.90;;;;;;932125;150;27344;-76
2023/09/03 02:51:39;;;;;;;2.42;2.22;;;17.60;99.90;;;;;;931823;150;27337;-76
2023/09/03 02:54:05;;;;;;;6.08;2.08;;;17.60;99.90;;;;;;930657;150;27356;-75
2023/09/03 02:56:32;;;;;;;3.58;2.22;;;17.60;99.90;;;;;;933213;150;27362;-76
2023/09/03 02:58:59;;;;;;;1.90;1.77;;;17.60;99.90;;;;;;932734;150;27299;-76
2023/09/03 03:01:25;;;;;;;2.37;2.00;;;17.50;99.90;;;;;;932008;150;27342;-76
2023/09/03 03:03:52;;;;;;;2.08;1.98;;;17.50;99.90;;;;;;931226;150;27293;-75
2023/09/03 03:06:18;;;;;;;3.55;2.10;;;17.50;99.90;;;;;;918766;152;27392;-75
2023/09/03 03:08:45;;;;;;;2.30;2.10;;;17.50;99.90;;;;;;917137;152;28019;-75
2023/09/03 03:11:14;;;;;;;3.15;1.90;;;17.50;99.90;;;;;;916968;152;27368;-75
2023/09/03 03:13:41;;;;;;;2.70;1.98;;;17.50;99.90;;;;;;928312;150;27328;-75
2023/09/03 03:16:07;;;;;;;2.05;1.95;;;17.50;99.90;;;;;;940073;149;27474;-75
2023/09/03 03:18:34;;;;;;;2.40;2.20;;;17.40;99.90;;;;;;946832;148;27318;-75
2023/09/03 03:21:16;;;;;;;2.37;2.22;;;17.40;99.90;;;;;;947774;148;27365;-76
2023/09/03 03:23:39;;;;;;;2.17;2.00;;;17.40;99.90;;;;;;946490;148;27371;-75
2023/09/03 03:26:05;;;;;;;3.25;2.12;;;17.40;99.90;;;;;;947967;148;27538;-75
2023/09/03 03:28:34;;;;;;;6.05;2.60;;;17.40;99.90;;;;;;949226;148;27422;-75
2023/09/03 03:31:13;;;;;;;2.35;2.08;;;17.50;99.90;;;;;;948539;148;27293;-75
2023/09/03 03:33:39;;;;;;;2.75;2.10;;;17.40;99.90;;;;;;949387;148;27473;-75
2023/09/03 03:36:06;;;;;;;3.17;2.20;;;17.50;99.90;;;;;;949537;148;27348;-75
2023/09/03 03:38:33;;;;;;;2.25;2.15;;;17.40;99.90;;;;;;947671;148;27387;-76
2023/09/03 03:41:11;;;;;;;3.80;2.42;;;17.50;99.90;;;;;;947819;148;27289;-75
2023/09/03 03:43:35;;;;;;;6.22;2.75;;;17.50;99.90;;;;;;948301;148;27387;-76
2023/09/03 03:46:01;;;;;;;3.05;2.55;;;17.50;99.90;;;;;;946868;148;28264;-75
2023/09/03 03:48:28;;;;;;;2.42;2.25;;;17.50;99.90;;;;;;950067;148;27318;-75
2023/09/03 03:50:55;;;;;;;5.40;3.35;;;17.60;99.90;;;;;;948240;148;27289;-75
2023/09/03 03:53:21;;;;;;;4.50;3.15;;;17.60;99.90;;;;;;947882;148;27363;-75
2023/09/03 03:55:48;;;;;;;4.67;3.33;;;17.60;99.90;;;;;;948147;148;27479;-74
2023/09/03 03:58:14;;;;;;;6.85;3.45;;;17.70;99.90;;;;;;949221;148;27296;-74
2023/09/03 04:00:41;;;;;;;5.75;3.62;;;17.70;99.90;;;;;;950202;148;27336;-74
2023/09/03 04:03:08;;;;;;;4.00;3.22;;;17.70;99.90;;;;;;950112;148;27340;-75
2023/09/03 04:05:34;;;;;;;4.72;2.80;;;17.70;99.90;;;;;;946345;148;27364;-75
2023/09/03 04:08:01;;;;;;;5.12;2.90;;;17.70;99.90;;;;;;949936;148;27702;-74
2023/09/03 04:10:27;;;;;;;4.03;2.83;;;17.70;99.90;;;;;;949189;148;27337;-74
2023/09/03 04:12:56;;;;;;;2.60;2.30;;;17.70;99.90;;;;;;947466;150;27446;-74
2023/09/03 04:15:20;;;;;;;2.30;2.10;;;17.70;99.90;;;;;;931345;150;27328;-74
2023/09/03 04:17:47;;;;;;;2.50;2.30;;;17.80;99.90;;;;;;931794;150;27343;-74
2023/09/03 04:20:14;;;;;;;2.42;2.10;;;17.80;99.90;;;;;;932085;150;27336;-74
2023/09/03 04:22:41;;;;;;;3.10;2.10;;;17.80;99.90;;;;;;932269;150;27356;-74
2023/09/03 04:25:07;;;;;;;5.72;3.05;;;17.80;99.90;;;;;;930471;150;27348;-75
2023/09/03 04:27:33;;;;;;;3.00;2.00;;;17.80;99.90;;;;;;931772;150;27375;-74
2023/09/03 04:30:00;;;;;;;3.02;2.20;;;17.80;99.90;;;;;;930813;150;27471;-75
2023/09/03 04:32:27;;;;;;;1.70;1.60;;;17.80;99.90;;;;;;930811;150;27738;-75
2023/09/03 04:34:53;;;;;;;2.33;1.92;;;17.80;99.90;;;;;;932235;150;27348;-74
2023/09/03 04:37:20;;;;;;;2.75;1.67;;;17.80;99.90;;;;;;931100;150;27300;-74
2023/09/03 04:39:46;;;;;;;2.17;1.92;;;17.80;99.90;;;;;;931941;150;27375;-74
2023/09/03 04:42:13;;;;;;;1.90;1.80;;;17.80;99.90;;;;;;931704;150;27317;-75
2023/09/03 04:44:42;;;;;;;2.00;1.80;;;17.80;99.90;;;;;;931000;150;27381;-75
2023/09/03 04:47:06;;;;;;;2.77;1.70;;;17.80;99.90;;;;;;932165;150;27343;-74
2023/09/03 04:49:33;;;;;;;5.15;2.50;;;17.80;99.90;;;;;;931326;150;27470;-74
2023/09/03 04:51:59;;;;;;;2.30;1.72;;;17.80;99.90;;;;;;931193;150;27406;-74
2023/09/03 04:54:26;;;;;;;2.83;1.98;;;17.80;99.90;;;;;;932185;150;27811;-75
2023/09/03 04:56:53;;;;;;;2.05;1.95;;;17.70;99.90;;;;;;933274;150;27315;-75
2023/09/03 04:59:19;;;;;;;4.60;2.22;;;17.70;99.90;;;;;;930804;150;27451;-75
2023/09/03 05:01:46;;;;;;;2.12;1.87;;;17.70;99.90;;;;;;930555;150;28272;-75
2023/09/03 05:04:12;;;;;;;6.78;3.12;;;17.70;99.90;;;;;;931478;150;27352;-75
2023/09/03 05:06:39;;;;;;;9.03;3.00;;;17.70;99.90;;;;;;931294;150;27342;-75
2023/09/03 05:09:05;;;;;;;5.60;2.60;;;17.70;99.90;;;;;;930531;150;27348;-75
2023/09/03 05:11:32;;;;;;;6.70;2.58;;;17.70;99.90;;;;;;932009;150;27468;-75
2023/09/03 05:13:59;;;;;;;8.75;3.65;;;17.70;99.90;;;;;;935225;149;27389;-75
2023/09/03 05:16:26;;;;;;;12.82;3.55;;;17.80;99.90;;;;;;943652;149;27262;-75
2023/09/03 05:18:52;;;;;;;17.70;3.47;;;17.80;99.90;;;;;;943368;149;27438;-75
2023/09/03 05:21:18;;;;;;;14.47;3.20;;;17.80;99.90;;;;;;941566;149;27420;-75
2023/09/03 05:23:45;;;;;;;15.48;3.95;;;17.90;99.90;;;;;;941958;149;27341;-75
2023/09/03 05:26:12;;;;;;;13.60;3.33;;;17.90;99.90;;;;;;943614;148;27381;-75
2023/09/03 05:28:38;;;;;;;14.93;2.95;;;18.00;99.90;;;;;;943418;149;27269;-75
2023/09/03 05:31:05;;;;;;;10.68;3.77;;;18.00;99.90;;;;;;942047;149;27361;-75
2023/09/03 05:33:31;;;;;;;9.50;3.12;;;18.10;99.90;;;;;;943349;149;27457;-75
2023/09/03 05:35:58;;;;;;;5.00;3.33;;;18.10;99.90;;;;;;927475;151;27367;-75
2023/09/03 05:38:25;;;;;;;24.37;3.72;;;18.20;99.90;;;;;;942657;151;27341;-75
2023/09/03 05:40:51;;;;;;;16.97;3.75;;;18.30;99.90;;;;;;943683;149;27355;-75
2023/09/03 05:43:18;;;;;;;7.97;3.00;;;18.40;99.90;;;;;;945298;148;27733;-75
2023/09/03 05:45:44;;;;;;;2.90;2.70;;;18.50;99.90;;;;;;924405;152;28570;-75
2023/09/03 05:48:11;;;;;;;2.83;2.62;;;18.60;99.90;;;;;;944903;149;27353;-75
2023/09/03 05:50:37;;;;;;;5.12;2.87;;;18.70;99.90;;;;;;943153;149;27454;-75
2023/09/03 05:53:04;;;;;;;3.52;3.15;;;18.70;99.90;;;;;;944681;149;27386;-75
2023/09/03 05:55:31;;;;;;;4.60;4.12;;;18.90;99.90;;;;;;943714;149;27471;-75
2023/09/03 05:57:58;;;;;;;5.15;3.67;;;18.90;99.90;;;;;;944105;148;27443;-75
2023/09/03 06:00:24;;;;;;;4.97;3.33;;;19.00;99.90;;;;;;943461;148;27365;-75
2023/09/03 06:02:50;;;;;;;4.17;3.17;;;19.10;99.90;;;;;;943479;149;27398;-75
2023/09/03 06:05:17;;;;;;;5.33;3.12;;;19.30;99.90;;;;;;944534;149;27437;-75
2023/09/03 06:07:44;;;;;;;3.67;3.00;;;19.40;99.90;;;;;;943496;149;27347;-75
2023/09/03 06:10:10;;;;;;;3.08;2.87;;;19.50;99.90;;;;;;943144;149;27311;-75
2023/09/03 06:12:37;;;;;;;3.27;2.90;;;19.60;99.90;;;;;;942915;149;27460;-75
2023/09/03 06:15:03;;;;;;;6.03;3.20;;;19.70;99.90;;;;;;937478;150;27402;-76
2023/09/03 06:17:30;;;;;;;4.62;3.22;;;19.80;99.90;;;;;;931876;150;29456;-75
2023/09/03 06:19:57;;;;;;;6.33;2.95;;;19.90;99.90;;;;;;931089;150;27330;-75
2023/09/03 06:22:23;;;;;;;6.00;3.12;;;20.00;99.90;;;;;;930124;150;27311;-75
2023/09/03 06:24:50;;;;;;;3.37;2.52;;;20.20;99.90;;;;;;930820;150;27369;-74
2023/09/03 06:27:16;;;;;;;5.08;3.30;;;20.30;99.90;;;;;;932282;150;27374;-75
2023/09/03 06:29:43;;;;;;;3.40;3.10;;;20.40;99.90;;;;;;930138;150;27480;-75
2023/09/03 06:32:10;;;;;;;4.40;3.12;;;20.60;99.90;;;;;;932643;150;27325;-77
2023/09/03 06:34:36;;;;;;;3.65;3.08;;;20.70;99.90;;;;;;932451;150;27423;-76
2023/09/03 06:37:03;;;;;;;4.25;2.70;;;20.90;99.90;;;;;;931717;150;27362;-76
2023/09/03 06:39:30;;;;;;;3.17;2.72;;;21.00;99.90;;;;;;930372;150;27361;-76
2023/09/03 06:41:56;;;;;;;3.08;2.65;;;21.20;99.90;;;;;;931790;150;27324;-76
2023/09/03 06:44:23;;;;;;;5.03;2.83;;;21.50;99.90;;;;;;931849;150;27350;-76
2023/09/03 06:46:49;;;;;;;5.40;3.10;;;21.70;99.90;;;;;;931923;150;27370;-75
2023/09/03 06:49:16;;;;;;;3.15;2.87;;;22.00;99.90;;;;;;931394;150;27343;-76
2023/09/03 06:51:42;;;;;;;4.20;2.65;;;22.30;99.90;;;;;;931960;150;27394;-75
2023/09/03 06:54:09;;;;;;;3.10;2.90;;;22.50;99.90;;;;;;931175;150;27340;-76
2023/09/03 06:56:35;;;;;;;2.27;2.05;;;22.70;99.90;;;;;;932175;150;27356;-76
2023/09/03 06:59:02;;;;;;;2.05;1.95;;;22.90;99.90;;;;;;931315;150;27376;-76
2023/09/03 07:01:29;;;;;;;6.12;1.90;;;23.10;99.90;;;;;;932141;150;27621;-76
2023/09/03 07:03:55;;;;;;;2.62;1.87;;;23.30;99.90;;;;;;931692;151;27910;-76
2023/09/03 07:06:22;;;;;;;2.98;1.75;;;23.50;99.90;;;;;;931276;150;27348;-75
2023/09/03 07:08:48;;;;;;;1.87;1.75;;;23.70;99.90;;;;;;931966;150;27424;-76
2023/09/03 07:11:15;;;;;;;1.80;1.70;;;24.10;99.90;;;;;;930861;150;27309;-76
2023/09/03 07:13:42;;;;;;;1.90;1.80;;;24.40;99.90;;;;;;931254;150;27379;-76
2023/09/03 07:16:08;;;;;;;2.08;1.90;;;24.70;99.90;;;;;;939726;150;27394;-76
2023/09/03 07:18:35;;;;;;;2.20;2.08;;;25.00;99.90;;;;;;943918;149;27351;-76
2023/09/03 07:21:07;;;;;;;2.12;2.00;;;25.20;99.90;;;;;;943916;149;28261;-74
2023/09/03 07:23:31;;;;;;;2.22;2.05;;;25.40;99.90;;;;;;927344;151;27353;-74
2023/09/03 07:26:07;;;;;;;2.20;2.00;;;25.60;99.10;;;;;;942985;149;27335;-73
2023/09/03 07:28:33;;;;;;;2.27;2.00;;;25.70;98.20;;;;;;924118;151;27392;-76
2023/09/03 07:31:00;;;;;;;2.20;1.92;;;25.80;97.60;;;;;;928016;150;27987;-74
2023/09/03 07:33:26;;;;;;;5.45;2.58;;;25.80;97.10;;;;;;927134;151;27434;-75
2023/09/03 07:35:53;;;;;;;2.90;2.70;;;26.00;96.40;;;;;;942837;149;27341;-74
2023/09/03 07:38:19;;;;;;;2.85;2.58;;;26.00;95.30;;;;;;943748;148;27311;-75
2023/09/03 07:40:46;;;;;;;2.72;2.52;;;26.10;95.10;;;;;;943320;149;27453;-73
2023/09/03 07:43:13;;;;;;;2.80;2.60;;;26.10;94.90;;;;;;926806;151;27449;-73
2023/09/03 07:45:39;;;;;;;3.02;2.72;;;26.20;95.00;;;;;;944918;148;27338;-74
2023/09/03 07:48:06;;;;;;;3.35;2.77;;;26.30;95.20;;;;;;943696;149;27397;-75
2023/09/03 07:50:32;;;;;;;2.77;2.58;;;26.50;96.20;;;;;;943202;148;27354;-73
2023/09/03 07:52:59;;;;;;;4.53;2.83;;;26.80;95.70;;;;;;943362;148;28615;-73
2023/09/03 07:55:26;;;;;;;3.85;2.98;;;27.00;94.70;;;;;;944561;148;27339;-73
2023/09/03 07:57:52;;;;;;;3.12;2.92;;;27.30;93.30;;;;;;944514;148;27519;-75
2023/09/03 08:00:19;;;;;;;2.87;2.67;;;27.50;92.60;;;;;;943829;149;27338;-76
2023/09/03 08:02:45;;;;;;;2.92;2.70;;;27.80;92.10;;;;;;943415;149;27487;-75
2023/09/03 08:05:12;;;;;;;3.05;2.83;;;28.10;92.00;;;;;;944689;148;27666;-73
2023/09/03 08:07:39;;;;;;;2.98;2.77;;;28.30;91.20;;;;;;927467;151;27450;-73
2023/09/03 08:10:05;;;;;;;3.37;2.83;;;28.70;90.70;;;;;;943196;149;27465;-74
2023/09/03 08:12:32;;;;;;;3.33;3.12;;;29.00;89.60;;;;;;944711;148;26365;-75
2023/09/03 08:14:58;;;;;;;2.90;2.70;;;29.40;87.50;;;;;;944273;148;27368;-74
2023/09/03 08:17:26;;;;;;;3.33;2.80;;;29.70;85.90;;;;;;935067;149;27364;-73
2023/09/03 08:19:51;;;;;;;3.25;2.95;;;30.10;84.90;;;;;;931157;150;27535;-74
2023/09/03 08:22:18;;;;;;;3.80;3.50;;;30.60;83.90;;;;;;931223;150;27364;-76
2023/09/03 08:24:45;;;;;;;2.95;2.75;;;31.00;81.50;;;;;;932264;150;27356;-73
2023/09/03 08:27:11;;;;;;;3.47;3.22;;;31.40;78.50;;;;;;932246;150;27351;-74
2023/09/03 08:29:38;;;;;;;3.45;3.15;;;31.80;75.80;;;;;;928952;150;27342;-75
2023/09/03 08:32:04;;;;;;;3.70;3.40;;;32.10;74.20;;;;;;932817;150;27757;-76
2023/09/03 08:34:31;;;;;;;5.40;3.65;;;32.30;73.20;;;;;;932057;150;27476;-75
2023/09/03 08:36:58;;;;;;;4.25;3.50;;;32.50;71.40;;;;;;931973;150;27489;-75
2023/09/03 08:39:24;;;;;;;4.22;3.83;;;32.80;70.10;;;;;;930622;150;27301;-75
2023/09/03 08:41:51;;;;;;;3.95;3.65;;;33.00;69.50;;;;;;931581;150;27934;-75
2023/09/03 08:44:29;;;;;;;3.92;3.62;;;33.20;69.30;;;;;;931474;150;26230;-75
2023/09/03 08:46:56;;;;;;;4.90;4.60;;;33.40;68.30;;;;;;932305;150;27363;-76
2023/09/03 08:49:22;;;;;;;4.30;3.90;;;33.60;67.10;;;;;;930844;150;27783;-75
2023/09/03 08:51:49;;;;;;;4.47;4.12;;;33.80;66.40;;;;;;931355;150;27338;-75
2023/09/03 08:54:15;;;;;;;4.95;4.55;;;34.10;66.00;;;;;;932185;150;26263;-76
2023/09/03 08:56:42;;;;;;;4.58;4.17;;;34.30;64.90;;;;;;930648;150;27510;-75
2023/09/03 08:59:09;;;;;;;4.58;4.17;;;34.50;63.40;;;;;;930749;150;26265;-75
2023/09/03 09:01:35;;;;;;;4.42;4.10;;;34.60;63.00;;;;;;931546;150;26211;-75
2023/09/03 09:04:02;;;;;;;4.60;4.17;;;34.80;62.10;;;;;;931611;150;26265;-76
2023/09/03 09:06:29;;;;;;;4.00;3.70;;;34.90;61.70;;;;;;930987;150;26384;-75
2023/09/03 09:08:55;;;;;;;4.35;4.05;;;35.00;61.30;;;;;;931191;150;26309;-75
2023/09/03 09:11:21;;;;;;;4.28;3.98;;;35.20;60.70;;;;;;930771;150;26324;-76
2023/09/03 09:13:48;;;;;;;4.12;3.87;;;35.30;59.90;;;;;;930683;150;26253;-76
2023/09/03 09:16:15;;;;;;;4.37;3.98;;;35.30;59.30;;;;;;929564;150;26340;-76
2023/09/03 09:18:41;;;;;;;4.17;3.87;;;35.40;58.90;;;;;;930374;150;26807;-76
2023/09/03 09:21:08;;;;;;;4.58;4.25;;;35.40;58.60;;;;;;929767;150;26214;-76
2023/09/03 09:23:34;;;;;;;4.17;3.87;;;35.40;58.20;;;;;;930245;150;26336;-75
2023/09/03 09:26:01;;;;;;;4.58;4.05;;;35.40;57.90;;;;;;930537;150;26356;-75
2023/09/03 09:28:28;;;;;;;3.83;3.52;;;35.30;57.60;;;;;;931809;150;26318;-75
2023/09/03 09:30:57;;;;;;;4.55;4.15;;;35.30;57.20;;;;;;932147;150;26261;-76
2023/09/03 09:33:23;;;;;;;4.53;4.10;;;35.20;57.10;;;;;;931018;150;26238;-75
2023/09/03 09:35:50;;;;;;;4.47;4.17;;;35.10;57.00;;;;;;932449;150;26820;-76
2023/09/03 09:38:17;;;;;;;4.15;3.85;;;34.90;57.00;;;;;;931669;150;27480;-75
2023/09/03 09:40:43;;;;;;;4.92;4.53;;;34.90;57.00;;;;;;931535;150;26348;-76
2023/09/03 09:43:10;;;;;;;4.70;4.40;;;34.90;56.90;;;;;;932828;150;26190;-76
2023/09/03 09:45:48;;;;;;;5.10;4.70;;;34.80;56.30;;;;;;931037;150;26314;-76
2023/09/03 09:48:15;;;;;;;4.05;3.75;;;34.70;56.30;;;;;;932219;150;26391;-77
2023/09/03 09:50:41;;;;;;;4.58;4.28;;;34.60;56.30;;;;;;930843;150;26420;-77
2023/09/03 09:53:23;;;;;;;4.70;4.35;;;34.50;56.20;;;;;;931229;150;28315;-76
2023/09/03 09:56:01;;;;;;;4.60;4.05;;;34.40;56.20;;;;;;928948;150;27373;-76
2023/09/03 09:58:40;;;;;;;4.62;4.22;;;34.30;56.30;;;;;;930851;150;26285;-76
2023/09/03 10:01:06;;;;;;;5.87;4.00;;;34.10;56.40;;;;;;930362;150;26231;-76
2023/09/03 10:03:45;;;;;;;4.55;4.05;;;34.00;56.30;;;;;;917702;152;27431;-76
2023/09/03 10:06:14;;;;;;;5.62;5.12;;;33.80;56.30;;;;;;908478;153;27368;-76
2023/09/03 10:08:41;;;;;;;5.17;4.47;;;33.70;56.00;;;;;;915202;152;27520;-76
2023/09/03 10:11:08;;;;;;;4.10;3.80;;;33.50;56.10;;;;;;915106;152;27354;-76
2023/09/03 10:13:34;;;;;;;4.65;4.25;;;33.40;56.20;;;;;;931942;150;27445;-76
2023/09/03 10:16:03;;;;;;;4.42;4.08;;;33.20;55.90;;;;;;931878;150;27269;-76
2023/09/03 10:18:30;;;;;;;3.80;3.50;;;33.00;56.00;;;;;;940020;149;27405;-76
2023/09/03 10:20:57;;;;;;;4.08;3.77;;;32.90;56.30;;;;;;944011;148;27340;-76
2023/09/03 10:23:23;;;;;;;4.37;3.92;;;32.70;56.40;;;;;;943839;149;27454;-76
2023/09/03 10:25:50;;;;;;;4.92;4.42;;;32.70;56.50;;;;;;943960;149;27352;-76
2023/09/03 10:28:20;;;;;;;4.60;4.20;;;32.50;57.00;;;;;;944846;149;27365;-76
2023/09/03 10:30:44;;;;;;;5.05;4.42;;;32.40;56.40;;;;;;942404;149;28043;-76
2023/09/03 10:33:09;;;;;;;4.30;4.00;;;32.30;56.30;;;;;;944201;148;27432;-76
2023/09/03 10:35:36;;;;;;;4.62;4.22;;;32.20;56.30;;;;;;945129;149;27417;-76
2023/09/03 10:38:03;;;;;;;4.30;4.00;;;32.00;56.20;;;;;;944087;148;27354;-76
2023/09/03 10:40:30;;;;;;;4.40;4.00;;;31.90;56.40;;;;;;943417;149;27779;-76
2023/09/03 10:43:14;;;;;;;4.30;3.87;;;31.70;56.60;;;;;;943800;149;26284;-76
2023/09/03 10:45:41;;;;;;;4.00;3.70;;;31.50;56.90;;;;;;935442;148;27409;-76
2023/09/03 10:48:08;;;;;;;4.60;4.28;;;31.50;57.20;;;;;;939920;149;27426;-76
2023/09/03 10:50:48;;;;;;;4.45;4.15;;;31.40;57.30;;;;;;943680;148;26292;-76
2023/09/03 10:53:37;;;;;;;4.00;3.70;;;31.30;57.10;;;;;;923128;152;27478;-76
2023/09/03 10:56:13;;;;;;;4.10;3.80;;;31.30;57.20;;;;;;921877;152;26402;-76
2023/09/03 10:59:00;;;;;;;4.40;4.10;;;31.20;57.30;;;;;;920197;152;27521;-76
2023/09/03 11:01:32;;;;;;;3.67;3.47;;;31.20;57.20;;;;;;921748;152;27384;-76
2023/09/03 11:03:59;;;;;;;3.70;3.40;;;31.20;57.20;;;;;;922738;152;27382;-76
2023/09/03 11:06:31;;;;;;;3.50;3.30;;;31.10;57.20;;;;;;921755;152;27354;-76
2023/09/03 11:09:05;;;;;;;3.75;3.45;;;31.10;57.30;;;;;;921437;152;27694;-76
2023/09/03 11:11:35;;;;;;;4.15;3.85;;;31.10;57.40;;;;;;923286;152;27536;-76
2023/09/03 11:14:00;;;;;;;4.08;3.77;;;31.20;57.30;;;;;;924376;152;27857;-76
2023/09/03 11:16:27;;;;;;;3.33;3.10;;;31.20;56.90;;;;;;924675;152;27321;-76
2023/09/03 11:18:53;;;;;;;3.55;3.27;;;31.10;56.80;;;;;;914763;152;27439;-76
2023/09/03 11:21:20;;;;;;;4.33;3.60;;;31.10;57.00;;;;;;909918;153;27371;-76
2023/09/03 11:24:04;;;;;;;4.12;3.72;;;31.10;56.30;;;;;;909283;153;27946;-76
2023/09/03 11:26:31;;;;;;;3.52;3.22;;;31.00;56.70;;;;;;907558;153;27504;-76
2023/09/03 11:28:58;;;;;;;3.15;2.85;;;31.00;56.50;;;;;;931568;150;26253;-76
2023/09/03 11:31:24;;;;;;;3.40;3.20;;;30.90;56.10;;;;;;916414;152;27466;-76
2023/09/03 11:33:51;;;;;;;3.00;2.80;;;30.80;56.00;;;;;;929567;149;27999;-76
2023/09/03 11:36:21;;;;;;;2.90;2.70;;;30.70;56.20;;;;;;929350;149;27389;-76
2023/09/03 11:38:44;;;;;;;2.70;2.50;;;30.60;56.20;;;;;;930301;150;27433;-76
2023/09/03 11:41:11;;;;;;;3.47;3.17;;;30.50;56.20;;;;;;930885;150;27353;-76
2023/09/03 11:43:37;;;;;;;3.35;3.15;;;30.40;56.40;;;;;;930487;150;27502;-76
2023/09/03 11:46:04;;;;;;;2.95;2.75;;;30.30;56.60;;;;;;931436;150;27375;-76
2023/09/03 11:48:31;;;;;;;3.20;2.98;;;30.30;56.80;;;;;;930225;150;27390;-76
2023/09/03 11:50:57;;;;;;;3.25;2.95;;;30.30;56.60;;;;;;930682;150;26251;-76
2023/09/03 11:53:24;;;;;;;3.00;2.80;;;30.30;56.60;;;;;;931178;150;27358;-76
2023/09/03 11:55:50;;;;;;;2.95;2.70;;;30.30;56.70;;;;;;930720;150;27356;-76
2023/09/03 11:58:17;;;;;;;2.98;2.75;;;30.30;56.70;;;;;;928901;150;27410;-76
2023/09/03 12:00:44;;;;;;;2.55;2.35;;;30.20;56.40;;;;;;929014;150;27288;-76
2023/09/03 12:03:10;;;;;;;2.58;2.33;;;30.20;56.00;;;;;;930130;150;27348;-77
2023/09/03 12:05:36;;;;;;;2.92;2.62;;;30.20;55.80;;;;;;930119;150;27377;-75
2023/09/03 12:08:03;;;;;;;2.83;2.62;;;30.10;55.80;;;;;;928244;150;27485;-76
2023/09/03 12:10:30;;;;;;;2.90;2.70;;;30.10;55.90;;;;;;930583;150;27325;-77
2023/09/03 12:12:56;;;;;;;2.62;2.42;;;30.00;55.80;;;;;;930178;150;27382;-77
2023/09/03 12:15:23;;;;;;;3.30;3.10;;;29.90;56.00;;;;;;931909;150;27768;-76
2023/09/03 12:17:49;;;;;;;3.17;2.87;;;29.90;56.00;;;;;;932013;150;27378;-77
2023/09/03 12:20:34;;;;;;;3.05;2.85;;;29.80;56.30;;;;;;940245;148;27427;-78
2023/09/03 12:23:16;;;;;;;2.72;2.52;;;29.70;56.20;;;;;;926824;151;27420;-77
2023/09/03 12:25:42;;;;;;;2.87;2.67;;;29.70;56.00;;;;;;928429;151;27447;-76
2023/09/03 12:28:09;;;;;;;2.62;2.42;;;29.60;56.00;;;;;;942892;149;27369;-78
2023/09/03 12:31:00;;;;;;;2.60;2.42;;;29.60;56.00;;;;;;925296;151;27490;-77
2023/09/03 12:33:27;;;;;;;2.72;2.35;;;29.50;56.00;;;;;;930015;151;27404;-77
2023/09/03 12:36:08;;;;;;;2.80;2.60;;;29.50;56.10;;;;;;942600;149;27450;-78
2023/09/03 12:38:51;;;;;;;3.08;2.87;;;29.40;56.10;;;;;;945780;148;27352;-76
2023/09/03 12:41:16;;;;;;;2.37;2.22;;;29.40;56.20;;;;;;919880;152;27483;-78
2023/09/03 12:43:43;;;;;;;2.70;2.50;;;29.30;56.20;;;;;;940707;148;27494;-77
2023/09/03 12:46:12;;;;;;;2.75;2.55;;;29.30;55.90;;;;;;936473;149;27347;-77
2023/09/03 12:48:39;;;;;;;2.52;2.42;;;29.30;56.10;;;;;;935443;149;27556;-77